Asan, Guam
Current Conditions -  °F | °C
As of 3:54 PM on Wednesday 22 Oct 2014 (Local Time) from PGUM Reporting Station
Few Clouds Few Clouds  
Wind Chill: 87°   Ceiling: Unl
Heat Index: 94°   Visibility: 10mi
Dew Point: 73°   Wind: 9mph
Humidity: 63%   Direction: 80°E
Pressure: 29.78"   Gusts: NA
Location:  13.47°N, 144.71°E
Report Text: PGUM 220554Z 08008KT 10SM FEW030 31/23 A2978 RMK AO2 SLP076 CB DSNT W T03060228 10311 20300 56007
Loading
Personal Weather Stations






























Interactive Weather Map
Tropical Storm Tracking
New forecast layout! Learn more

10-Day Weather Forecast

Advertisements
Track Severe Weather on mobile